sensor_id;sensor_type;location;lat;lon;timestamp;P1;durP1;ratioP1;P2;durP2;ratioP2
19903;SDS011;10114;50.970;4.962;2022-10-23T00:00:20;12.43;;;4.00;;
19903;SDS011;10114;50.970;4.962;2022-10-23T00:02:53;15.20;;;4.32;;
19903;SDS011;10114;50.970;4.962;2022-10-23T00:05:19;10.95;;;3.97;;
19903;SDS011;10114;50.970;4.962;2022-10-23T00:07:49;16.92;;;4.68;;
19903;SDS011;10114;50.970;4.962;2022-10-23T00:10:16;14.77;;;4.32;;
19903;SDS011;10114;50.970;4.962;2022-10-23T00:12:42;13.50;;;4.25;;
19903;SDS011;10114;50.970;4.962;2022-10-23T00:15:09;11.07;;;4.32;;
19903;SDS011;10114;50.970;4.962;2022-10-23T00:17:35;13.70;;;4.40;;
19903;SDS011;10114;50.970;4.962;2022-10-23T00:20:01;15.70;;;3.85;;
19903;SDS011;10114;50.970;4.962;2022-10-23T00:22:27;10.68;;;3.70;;
19903;SDS011;10114;50.970;4.962;2022-10-23T00:24:53;8.77;;;3.70;;
19903;SDS011;10114;50.970;4.962;2022-10-23T00:27:19;14.90;;;4.15;;
19903;SDS011;10114;50.970;4.962;2022-10-23T00:29:45;17.13;;;4.72;;
19903;SDS011;10114;50.970;4.962;2022-10-23T00:32:11;11.85;;;4.22;;
19903;SDS011;10114;50.970;4.962;2022-10-23T00:34:37;15.05;;;4.13;;
19903;SDS011;10114;50.970;4.962;2022-10-23T00:37:03;11.65;;;3.78;;
19903;SDS011;10114;50.970;4.962;2022-10-23T00:39:29;17.20;;;4.20;;
19903;SDS011;10114;50.970;4.962;2022-10-23T00:41:55;16.13;;;4.20;;
19903;SDS011;10114;50.970;4.962;2022-10-23T00:46:47;14.18;;;4.03;;
19903;SDS011;10114;50.970;4.962;2022-10-23T00:49:14;11.57;;;4.22;;
19903;SDS011;10114;50.970;4.962;2022-10-23T00:51:44;13.48;;;4.22;;
19903;SDS011;10114;50.970;4.962;2022-10-23T00:54:12;15.45;;;4.35;;
19903;SDS011;10114;50.970;4.962;2022-10-23T00:56:39;12.15;;;4.13;;
19903;SDS011;10114;50.970;4.962;2022-10-23T00:59:06;10.15;;;3.92;;
19903;SDS011;10114;50.970;4.962;2022-10-23T01:01:33;12.88;;;5.10;;
19903;SDS011;10114;50.970;4.962;2022-10-23T01:04:00;16.48;;;4.20;;
19903;SDS011;10114;50.970;4.962;2022-10-23T01:11:41;12.82;;;3.80;;
19903;SDS011;10114;50.970;4.962;2022-10-23T01:14:20;12.95;;;3.80;;
19903;SDS011;10114;50.970;4.962;2022-10-23T01:17:08;13.35;;;3.53;;
19903;SDS011;10114;50.970;4.962;2022-10-23T01:24:53;12.88;;;3.65;;
19903;SDS011;10114;50.970;4.962;2022-10-23T01:27:25;15.70;;;3.38;;
19903;SDS011;10114;50.970;4.962;2022-10-23T01:29:57;11.82;;;3.00;;
19903;SDS011;10114;50.970;4.962;2022-10-23T01:34:53;11.73;;;3.75;;
19903;SDS011;10114;50.970;4.962;2022-10-23T01:37:41;9.00;;;3.05;;
19903;SDS011;10114;50.970;4.962;2022-10-23T01:40:09;8.25;;;2.70;;
19903;SDS011;10114;50.970;4.962;2022-10-23T01:42:38;12.10;;;3.38;;
19903;SDS011;10114;50.970;4.962;2022-10-23T01:45:07;13.30;;;3.28;;
19903;SDS011;10114;50.970;4.962;2022-10-23T01:47:34;8.57;;;3.50;;
19903;SDS011;10114;50.970;4.962;2022-10-23T01:50:02;11.80;;;2.70;;
19903;SDS011;10114;50.970;4.962;2022-10-23T01:52:28;7.28;;;2.60;;
19903;SDS011;10114;50.970;4.962;2022-10-23T01:54:55;9.15;;;2.78;;
19903;SDS011;10114;50.970;4.962;2022-10-23T01:57:24;8.65;;;2.65;;
19903;SDS011;10114;50.970;4.962;2022-10-23T01:59:55;8.48;;;2.47;;
19903;SDS011;10114;50.970;4.962;2022-10-23T02:02:22;8.63;;;2.70;;
19903;SDS011;10114;50.970;4.962;2022-10-23T02:07:15;8.02;;;2.88;;
19903;SDS011;10114;50.970;4.962;2022-10-23T02:09:41;8.65;;;2.80;;
19903;SDS011;10114;50.970;4.962;2022-10-23T02:12:08;10.35;;;2.50;;
19903;SDS011;10114;50.970;4.962;2022-10-23T02:14:45;9.00;;;3.00;;
19903;SDS011;10114;50.970;4.962;2022-10-23T02:22:51;9.10;;;2.83;;
19903;SDS011;10114;50.970;4.962;2022-10-23T02:25:20;7.40;;;2.50;;
19903;SDS011;10114;50.970;4.962;2022-10-23T02:27:49;10.95;;;3.15;;
19903;SDS011;10114;50.970;4.962;2022-10-23T02:30:18;11.43;;;2.90;;
19903;SDS011;10114;50.970;4.962;2022-10-23T02:32:48;7.15;;;2.40;;
19903;SDS011;10114;50.970;4.962;2022-10-23T02:35:15;7.75;;;2.95;;
19903;SDS011;10114;50.970;4.962;2022-10-23T02:37:42;8.65;;;2.75;;
19903;SDS011;10114;50.970;4.962;2022-10-23T02:40:08;7.25;;;3.58;;
19903;SDS011;10114;50.970;4.962;2022-10-23T02:42:38;8.30;;;2.80;;
19903;SDS011;10114;50.970;4.962;2022-10-23T02:45:19;8.45;;;2.83;;
19903;SDS011;10114;50.970;4.962;2022-10-23T02:55:30;8.32;;;2.50;;
19903;SDS011;10114;50.970;4.962;2022-10-23T02:58:01;10.32;;;3.15;;
19903;SDS011;10114;50.970;4.962;2022-10-23T03:00:28;8.73;;;2.92;;
19903;SDS011;10114;50.970;4.962;2022-10-23T03:02:56;10.18;;;3.30;;
19903;SDS011;10114;50.970;4.962;2022-10-23T03:05:25;7.32;;;2.60;;
19903;SDS011;10114;50.970;4.962;2022-10-23T03:07:52;8.15;;;3.85;;
19903;SDS011;10114;50.970;4.962;2022-10-23T03:10:19;7.35;;;2.70;;
19903;SDS011;10114;50.970;4.962;2022-10-23T03:12:45;6.68;;;2.72;;
19903;SDS011;10114;50.970;4.962;2022-10-23T03:15:12;8.98;;;3.25;;
19903;SDS011;10114;50.970;4.962;2022-10-23T03:17:39;9.82;;;2.95;;
19903;SDS011;10114;50.970;4.962;2022-10-23T03:20:05;11.20;;;2.80;;
19903;SDS011;10114;50.970;4.962;2022-10-23T03:22:32;5.40;;;2.72;;
19903;SDS011;10114;50.970;4.962;2022-10-23T03:24:58;8.85;;;2.70;;
19903;SDS011;10114;50.970;4.962;2022-10-23T03:27:24;6.43;;;3.10;;
19903;SDS011;10114;50.970;4.962;2022-10-23T03:29:50;9.23;;;3.13;;
19903;SDS011;10114;50.970;4.962;2022-10-23T03:32:16;9.85;;;3.03;;
19903;SDS011;10114;50.970;4.962;2022-10-23T03:34:42;9.05;;;3.35;;
19903;SDS011;10114;50.970;4.962;2022-10-23T03:37:08;7.00;;;2.80;;
19903;SDS011;10114;50.970;4.962;2022-10-23T03:39:34;9.15;;;3.00;;
19903;SDS011;10114;50.970;4.962;2022-10-23T03:42:00;8.98;;;2.80;;
19903;SDS011;10114;50.970;4.962;2022-10-23T03:44:26;8.15;;;2.97;;
19903;SDS011;10114;50.970;4.962;2022-10-23T03:46:55;5.18;;;2.60;;
19903;SDS011;10114;50.970;4.962;2022-10-23T03:49:21;12.15;;;3.22;;
19903;SDS011;10114;50.970;4.962;2022-10-23T03:51:47;9.02;;;2.85;;
19903;SDS011;10114;50.970;4.962;2022-10-23T03:54:23;12.23;;;3.47;;
19903;SDS011;10114;50.970;4.962;2022-10-23T03:56:50;8.13;;;3.42;;
19903;SDS011;10114;50.970;4.962;2022-10-23T03:59:16;11.88;;;3.20;;
19903;SDS011;10114;50.970;4.962;2022-10-23T04:01:42;6.80;;;2.70;;
19903;SDS011;10114;50.970;4.962;2022-10-23T04:04:08;11.50;;;2.80;;
19903;SDS011;10114;50.970;4.962;2022-10-23T04:06:34;9.70;;;3.35;;
19903;SDS011;10114;50.970;4.962;2022-10-23T04:09:00;19.60;;;3.80;;
19903;SDS011;10114;50.970;4.962;2022-10-23T04:11:27;8.55;;;3.33;;
19903;SDS011;10114;50.970;4.962;2022-10-23T04:13:53;7.70;;;3.55;;
19903;SDS011;10114;50.970;4.962;2022-10-23T04:16:19;11.30;;;3.17;;
19903;SDS011;10114;50.970;4.962;2022-10-23T04:18:45;7.85;;;3.00;;
19903;SDS011;10114;50.970;4.962;2022-10-23T04:21:11;8.73;;;2.90;;
19903;SDS011;10114;50.970;4.962;2022-10-23T04:23:37;8.75;;;3.45;;
19903;SDS011;10114;50.970;4.962;2022-10-23T04:26:03;9.05;;;3.30;;
19903;SDS011;10114;50.970;4.962;2022-10-23T04:28:29;8.25;;;2.85;;
19903;SDS011;10114;50.970;4.962;2022-10-23T04:30:55;7.47;;;3.08;;
19903;SDS011;10114;50.970;4.962;2022-10-23T04:33:21;12.38;;;3.13;;
19903;SDS011;10114;50.970;4.962;2022-10-23T04:35:47;7.93;;;3.50;;
19903;SDS011;10114;50.970;4.962;2022-10-23T04:38:13;9.07;;;3.40;;
19903;SDS011;10114;50.970;4.962;2022-10-23T04:40:39;11.60;;;3.40;;
19903;SDS011;10114;50.970;4.962;2022-10-23T04:43:05;10.02;;;3.05;;
19903;SDS011;10114;50.970;4.962;2022-10-23T04:45:31;12.07;;;3.28;;
19903;SDS011;10114;50.970;4.962;2022-10-23T04:47:57;9.68;;;3.70;;
19903;SDS011;10114;50.970;4.962;2022-10-23T04:50:23;7.32;;;3.47;;
19903;SDS011;10114;50.970;4.962;2022-10-23T04:52:52;10.50;;;4.25;;
19903;SDS011;10114;50.970;4.962;2022-10-23T04:55:18;8.27;;;3.17;;
19903;SDS011;10114;50.970;4.962;2022-10-23T04:57:45;12.45;;;3.95;;
19903;SDS011;10114;50.970;4.962;2022-10-23T05:00:11;9.63;;;4.03;;
19903;SDS011;10114;50.970;4.962;2022-10-23T05:02:38;11.05;;;4.75;;
19903;SDS011;10114;50.970;4.962;2022-10-23T05:05:04;10.75;;;4.15;;
19903;SDS011;10114;50.970;4.962;2022-10-23T05:07:31;12.95;;;4.10;;
19903;SDS011;10114;50.970;4.962;2022-10-23T05:09:57;10.05;;;3.75;;
19903;SDS011;10114;50.970;4.962;2022-10-23T05:12:23;13.07;;;3.60;;
19903;SDS011;10114;50.970;4.962;2022-10-23T05:14:50;7.63;;;3.60;;
19903;SDS011;10114;50.970;4.962;2022-10-23T05:17:18;9.70;;;3.88;;
19903;SDS011;10114;50.970;4.962;2022-10-23T05:19:50;9.23;;;3.80;;
19903;SDS011;10114;50.970;4.962;2022-10-23T05:22:17;11.68;;;4.47;;
19903;SDS011;10114;50.970;4.962;2022-10-23T05:24:43;7.95;;;3.95;;
19903;SDS011;10114;50.970;4.962;2022-10-23T05:27:09;9.93;;;4.20;;
19903;SDS011;10114;50.970;4.962;2022-10-23T05:29:35;14.07;;;4.03;;
19903;SDS011;10114;50.970;4.962;2022-10-23T05:32:02;16.02;;;3.90;;
19903;SDS011;10114;50.970;4.962;2022-10-23T05:34:28;13.45;;;4.15;;
19903;SDS011;10114;50.970;4.962;2022-10-23T05:36:56;8.45;;;3.47;;
19903;SDS011;10114;50.970;4.962;2022-10-23T05:39:23;9.82;;;3.60;;
19903;SDS011;10114;50.970;4.962;2022-10-23T05:41:49;9.52;;;3.55;;
19903;SDS011;10114;50.970;4.962;2022-10-23T05:44:16;9.85;;;3.90;;
19903;SDS011;10114;50.970;4.962;2022-10-23T05:46:42;8.40;;;3.67;;
19903;SDS011;10114;50.970;4.962;2022-10-23T05:49:08;10.63;;;4.07;;
19903;SDS011;10114;50.970;4.962;2022-10-23T05:51:35;6.93;;;3.50;;
19903;SDS011;10114;50.970;4.962;2022-10-23T05:54:01;8.50;;;3.40;;
19903;SDS011;10114;50.970;4.962;2022-10-23T05:56:27;7.72;;;3.40;;
19903;SDS011;10114;50.970;4.962;2022-10-23T05:58:53;7.75;;;3.85;;
19903;SDS011;10114;50.970;4.962;2022-10-23T06:01:19;10.75;;;3.95;;
19903;SDS011;10114;50.970;4.962;2022-10-23T06:03:47;11.98;;;3.55;;
19903;SDS011;10114;50.970;4.962;2022-10-23T06:06:13;10.48;;;3.28;;
19903;SDS011;10114;50.970;4.962;2022-10-23T06:08:39;11.85;;;4.00;;
19903;SDS011;10114;50.970;4.962;2022-10-23T06:11:08;10.50;;;3.33;;
19903;SDS011;10114;50.970;4.962;2022-10-23T06:13:35;7.00;;;3.20;;
19903;SDS011;10114;50.970;4.962;2022-10-23T06:16:14;6.88;;;2.90;;
19903;SDS011;10114;50.970;4.962;2022-10-23T06:18:40;11.13;;;3.60;;
19903;SDS011;10114;50.970;4.962;2022-10-23T06:21:07;8.35;;;3.50;;
19903;SDS011;10114;50.970;4.962;2022-10-23T06:23:33;10.80;;;3.53;;
19903;SDS011;10114;50.970;4.962;2022-10-23T06:26:00;7.82;;;3.03;;
19903;SDS011;10114;50.970;4.962;2022-10-23T06:28:26;9.10;;;3.65;;
19903;SDS011;10114;50.970;4.962;2022-10-23T06:30:53;11.60;;;3.13;;
19903;SDS011;10114;50.970;4.962;2022-10-23T06:33:19;9.95;;;3.15;;
19903;SDS011;10114;50.970;4.962;2022-10-23T06:35:45;7.40;;;3.33;;
19903;SDS011;10114;50.970;4.962;2022-10-23T06:38:11;6.88;;;3.17;;
19903;SDS011;10114;50.970;4.962;2022-10-23T06:40:37;16.60;;;3.63;;
19903;SDS011;10114;50.970;4.962;2022-10-23T06:43:04;7.20;;;3.22;;
19903;SDS011;10114;50.970;4.962;2022-10-23T06:45:31;7.05;;;2.88;;
19903;SDS011;10114;50.970;4.962;2022-10-23T06:48:00;6.50;;;3.03;;
19903;SDS011;10114;50.970;4.962;2022-10-23T06:50:27;11.02;;;3.17;;
19903;SDS011;10114;50.970;4.962;2022-10-23T06:52:55;13.05;;;3.60;;
19903;SDS011;10114;50.970;4.962;2022-10-23T06:55:21;9.23;;;2.90;;
19903;SDS011;10114;50.970;4.962;2022-10-23T06:57:47;6.60;;;3.25;;
19903;SDS011;10114;50.970;4.962;2022-10-23T07:00:14;9.05;;;3.20;;
19903;SDS011;10114;50.970;4.962;2022-10-23T07:02:40;5.35;;;2.92;;
19903;SDS011;10114;50.970;4.962;2022-10-23T07:05:06;10.30;;;3.25;;
19903;SDS011;10114;50.970;4.962;2022-10-23T07:07:32;8.05;;;2.80;;
19903;SDS011;10114;50.970;4.962;2022-10-23T07:09:58;5.82;;;2.88;;
19903;SDS011;10114;50.970;4.962;2022-10-23T07:12:24;10.02;;;3.25;;
19903;SDS011;10114;50.970;4.962;2022-10-23T07:14:50;8.60;;;2.92;;
19903;SDS011;10114;50.970;4.962;2022-10-23T07:17:16;7.15;;;3.20;;
19903;SDS011;10114;50.970;4.962;2022-10-23T07:19:42;6.63;;;3.28;;
19903;SDS011;10114;50.970;4.962;2022-10-23T07:22:08;6.72;;;3.00;;
19903;SDS011;10114;50.970;4.962;2022-10-23T07:24:34;9.00;;;2.88;;
19903;SDS011;10114;50.970;4.962;2022-10-23T07:27:02;6.30;;;2.92;;
19903;SDS011;10114;50.970;4.962;2022-10-23T07:29:29;11.80;;;3.58;;
19903;SDS011;10114;50.970;4.962;2022-10-23T07:31:55;9.70;;;3.05;;
19903;SDS011;10114;50.970;4.962;2022-10-23T07:34:22;10.15;;;3.20;;
19903;SDS011;10114;50.970;4.962;2022-10-23T07:36:48;10.88;;;3.10;;
19903;SDS011;10114;50.970;4.962;2022-10-23T07:39:15;5.47;;;2.58;;
19903;SDS011;10114;50.970;4.962;2022-10-23T07:41:41;8.40;;;3.20;;
19903;SDS011;10114;50.970;4.962;2022-10-23T07:44:07;9.73;;;3.40;;
19903;SDS011;10114;50.970;4.962;2022-10-23T07:46:33;10.02;;;3.25;;
19903;SDS011;10114;50.970;4.962;2022-10-23T07:48:59;9.55;;;3.20;;
19903;SDS011;10114;50.970;4.962;2022-10-23T07:51:25;15.80;;;3.55;;
19903;SDS011;10114;50.970;4.962;2022-10-23T07:53:51;11.15;;;3.17;;
19903;SDS011;10114;50.970;4.962;2022-10-23T07:56:21;8.07;;;2.92;;
19903;SDS011;10114;50.970;4.962;2022-10-23T07:58:49;5.60;;;2.42;;
19903;SDS011;10114;50.970;4.962;2022-10-23T08:01:18;11.32;;;2.40;;
19903;SDS011;10114;50.970;4.962;2022-10-23T08:03:45;9.38;;;2.40;;
19903;SDS011;10114;50.970;4.962;2022-10-23T08:06:11;6.88;;;2.35;;
19903;SDS011;10114;50.970;4.962;2022-10-23T08:08:37;8.32;;;2.22;;
19903;SDS011;10114;50.970;4.962;2022-10-23T08:11:03;6.88;;;2.30;;
19903;SDS011;10114;50.970;4.962;2022-10-23T08:13:29;6.70;;;2.22;;
19903;SDS011;10114;50.970;4.962;2022-10-23T08:15:55;12.07;;;2.33;;
19903;SDS011;10114;50.970;4.962;2022-10-23T08:18:22;9.10;;;2.38;;
19903;SDS011;10114;50.970;4.962;2022-10-23T08:20:48;11.60;;;2.08;;
19903;SDS011;10114;50.970;4.962;2022-10-23T08:23:16;5.88;;;2.13;;
19903;SDS011;10114;50.970;4.962;2022-10-23T08:25:43;5.78;;;2.05;;
19903;SDS011;10114;50.970;4.962;2022-10-23T08:28:09;7.40;;;2.30;;
19903;SDS011;10114;50.970;4.962;2022-10-23T08:30:35;4.85;;;2.00;;
19903;SDS011;10114;50.970;4.962;2022-10-23T08:33:02;6.43;;;1.80;;
19903;SDS011;10114;50.970;4.962;2022-10-23T08:35:28;5.40;;;2.13;;
19903;SDS011;10114;50.970;4.962;2022-10-23T08:37:55;6.88;;;2.28;;
19903;SDS011;10114;50.970;4.962;2022-10-23T08:40:21;4.25;;;1.67;;
19903;SDS011;10114;50.970;4.962;2022-10-23T08:42:52;10.25;;;1.88;;
19903;SDS011;10114;50.970;4.962;2022-10-23T08:45:32;7.53;;;1.60;;
19903;SDS011;10114;50.970;4.962;2022-10-23T08:48:03;5.43;;;2.00;;
19903;SDS011;10114;50.970;4.962;2022-10-23T08:50:34;5.40;;;1.98;;
19903;SDS011;10114;50.970;4.962;2022-10-23T08:53:08;6.32;;;2.13;;
19903;SDS011;10114;50.970;4.962;2022-10-23T08:55:48;6.38;;;1.90;;
19903;SDS011;10114;50.970;4.962;2022-10-23T09:00:42;6.60;;;1.70;;
19903;SDS011;10114;50.970;4.962;2022-10-23T09:03:08;6.22;;;1.80;;
19903;SDS011;10114;50.970;4.962;2022-10-23T09:11:00;8.00;;;2.35;;
19903;SDS011;10114;50.970;4.962;2022-10-23T09:15:56;5.32;;;2.00;;
19903;SDS011;10114;50.970;4.962;2022-10-23T09:18:25;7.15;;;1.98;;
19903;SDS011;10114;50.970;4.962;2022-10-23T09:20:51;7.68;;;2.50;;
19903;SDS011;10114;50.970;4.962;2022-10-23T09:23:18;8.15;;;1.98;;
19903;SDS011;10114;50.970;4.962;2022-10-23T09:25:46;7.47;;;2.33;;
19903;SDS011;10114;50.970;4.962;2022-10-23T09:28:35;7.30;;;1.85;;
19903;SDS011;10114;50.970;4.962;2022-10-23T09:31:08;8.32;;;1.70;;
19903;SDS011;10114;50.970;4.962;2022-10-23T09:33:35;4.18;;;1.55;;
19903;SDS011;10114;50.970;4.962;2022-10-23T09:38:38;9.15;;;1.95;;
19903;SDS011;10114;50.970;4.962;2022-10-23T09:41:21;9.32;;;2.10;;
19903;SDS011;10114;50.970;4.962;2022-10-23T09:46:35;5.07;;;2.42;;
19903;SDS011;10114;50.970;4.962;2022-10-23T09:49:01;4.97;;;1.80;;
19903;SDS011;10114;50.970;4.962;2022-10-23T09:51:27;5.88;;;1.90;;
19903;SDS011;10114;50.970;4.962;2022-10-23T09:53:56;6.43;;;2.05;;
19903;SDS011;10114;50.970;4.962;2022-10-23T09:56:29;5.63;;;1.92;;
19903;SDS011;10114;50.970;4.962;2022-10-23T09:58:56;4.85;;;1.75;;
19903;SDS011;10114;50.970;4.962;2022-10-23T10:01:27;15.27;;;2.83;;
19903;SDS011;10114;50.970;4.962;2022-10-23T10:03:54;9.70;;;2.47;;
19903;SDS011;10114;50.970;4.962;2022-10-23T10:06:28;6.03;;;2.20;;
19903;SDS011;10114;50.970;4.962;2022-10-23T10:08:59;5.20;;;1.88;;
19903;SDS011;10114;50.970;4.962;2022-10-23T10:14:17;7.60;;;2.45;;
19903;SDS011;10114;50.970;4.962;2022-10-23T10:19:18;8.88;;;2.60;;
19903;SDS011;10114;50.970;4.962;2022-10-23T10:21:54;6.15;;;1.85;;
19903;SDS011;10114;50.970;4.962;2022-10-23T10:24:57;7.57;;;2.20;;
19903;SDS011;10114;50.970;4.962;2022-10-23T10:30:15;6.20;;;1.80;;
19903;SDS011;10114;50.970;4.962;2022-10-23T10:38:12;5.72;;;1.92;;
19903;SDS011;10114;50.970;4.962;2022-10-23T10:40:32;9.40;;;2.40;;
19903;SDS011;10114;50.970;4.962;2022-10-23T10:48:20;7.55;;;2.13;;
19903;SDS011;10114;50.970;4.962;2022-10-23T10:50:45;4.18;;;1.92;;
19903;SDS011;10114;50.970;4.962;2022-10-23T10:55:54;5.07;;;2.10;;
19903;SDS011;10114;50.970;4.962;2022-10-23T11:00:54;7.07;;;1.88;;
19903;SDS011;10114;50.970;4.962;2022-10-23T11:05:49;7.63;;;2.08;;
19903;SDS011;10114;50.970;4.962;2022-10-23T11:10:58;7.78;;;2.22;;
19903;SDS011;10114;50.970;4.962;2022-10-23T11:15:51;8.38;;;2.25;;
19903;SDS011;10114;50.970;4.962;2022-10-23T11:18:23;13.75;;;2.50;;
19903;SDS011;10114;50.970;4.962;2022-10-23T11:20:53;8.63;;;2.22;;
19903;SDS011;10114;50.970;4.962;2022-10-23T11:34:00;7.75;;;1.95;;
19903;SDS011;10114;50.970;4.962;2022-10-23T11:36:45;10.30;;;2.40;;
19903;SDS011;10114;50.970;4.962;2022-10-23T11:41:54;5.10;;;2.10;;
19903;SDS011;10114;50.970;4.962;2022-10-23T11:44:23;6.32;;;2.13;;
19903;SDS011;10114;50.970;4.962;2022-10-23T11:46:57;7.05;;;2.25;;
19903;SDS011;10114;50.970;4.962;2022-10-23T11:49:24;6.22;;;2.15;;
19903;SDS011;10114;50.970;4.962;2022-10-23T11:52:03;6.70;;;1.85;;
19903;SDS011;10114;50.970;4.962;2022-10-23T11:54:30;5.93;;;1.90;;
19903;SDS011;10114;50.970;4.962;2022-10-23T11:57:12;9.50;;;2.10;;
19903;SDS011;10114;50.970;4.962;2022-10-23T12:04:56;8.88;;;2.33;;
19903;SDS011;10114;50.970;4.962;2022-10-23T12:07:24;6.25;;;1.92;;
19903;SDS011;10114;50.970;4.962;2022-10-23T12:12:36;9.80;;;2.47;;
19903;SDS011;10114;50.970;4.962;2022-10-23T12:17:39;4.93;;;1.92;;
19903;SDS011;10114;50.970;4.962;2022-10-23T12:25:16;5.97;;;2.15;;
19903;SDS011;10114;50.970;4.962;2022-10-23T12:30:46;8.98;;;2.22;;
19903;SDS011;10114;50.970;4.962;2022-10-23T12:38:47;4.63;;;1.80;;
19903;SDS011;10114;50.970;4.962;2022-10-23T12:43:41;5.00;;;2.15;;
19903;SDS011;10114;50.970;4.962;2022-10-23T12:48:34;5.47;;;2.05;;
19903;SDS011;10114;50.970;4.962;2022-10-23T12:51:00;6.55;;;1.70;;
19903;SDS011;10114;50.970;4.962;2022-10-23T12:53:26;8.63;;;2.15;;
19903;SDS011;10114;50.970;4.962;2022-10-23T12:56:02;11.27;;;4.45;;
19903;SDS011;10114;50.970;4.962;2022-10-23T12:58:30;7.78;;;2.08;;
19903;SDS011;10114;50.970;4.962;2022-10-23T13:00:58;7.68;;;1.98;;
19903;SDS011;10114;50.970;4.962;2022-10-23T13:03:24;9.90;;;1.85;;
19903;SDS011;10114;50.970;4.962;2022-10-23T13:05:51;7.45;;;2.30;;
19903;SDS011;10114;50.970;4.962;2022-10-23T13:08:19;7.60;;;2.05;;
19903;SDS011;10114;50.970;4.962;2022-10-23T13:10:46;5.55;;;1.67;;
19903;SDS011;10114;50.970;4.962;2022-10-23T13:13:13;8.10;;;2.10;;
19903;SDS011;10114;50.970;4.962;2022-10-23T13:15:43;5.40;;;2.30;;
19903;SDS011;10114;50.970;4.962;2022-10-23T13:18:12;5.43;;;1.75;;
19903;SDS011;10114;50.970;4.962;2022-10-23T13:20:53;8.73;;;2.80;;
19903;SDS011;10114;50.970;4.962;2022-10-23T13:25:56;8.82;;;2.10;;
19903;SDS011;10114;50.970;4.962;2022-10-23T13:28:23;8.15;;;2.28;;
19903;SDS011;10114;50.970;4.962;2022-10-23T13:33:43;6.47;;;1.90;;
19903;SDS011;10114;50.970;4.962;2022-10-23T13:38:42;7.30;;;1.77;;
19903;SDS011;10114;50.970;4.962;2022-10-23T13:41:13;5.43;;;1.67;;
19903;SDS011;10114;50.970;4.962;2022-10-23T13:43:39;7.22;;;1.58;;
19903;SDS011;10114;50.970;4.962;2022-10-23T13:46:10;5.22;;;1.60;;
19903;SDS011;10114;50.970;4.962;2022-10-23T13:48:37;7.30;;;1.63;;
19903;SDS011;10114;50.970;4.962;2022-10-23T13:51:11;5.78;;;1.70;;
19903;SDS011;10114;50.970;4.962;2022-10-23T13:53:37;6.68;;;1.70;;
19903;SDS011;10114;50.970;4.962;2022-10-23T13:56:03;9.23;;;2.47;;
19903;SDS011;10114;50.970;4.962;2022-10-23T13:58:29;6.43;;;1.90;;
19903;SDS011;10114;50.970;4.962;2022-10-23T14:00:56;3.78;;;1.70;;
19903;SDS011;10114;50.970;4.962;2022-10-23T14:03:22;4.63;;;1.70;;
19903;SDS011;10114;50.970;4.962;2022-10-23T14:05:51;5.25;;;1.95;;
19903;SDS011;10114;50.970;4.962;2022-10-23T14:08:17;9.25;;;2.15;;
19903;SDS011;10114;50.970;4.962;2022-10-23T14:10:44;6.03;;;2.20;;
19903;SDS011;10114;50.970;4.962;2022-10-23T14:13:10;8.85;;;2.45;;
19903;SDS011;10114;50.970;4.962;2022-10-23T14:15:36;4.97;;;1.67;;
19903;SDS011;10114;50.970;4.962;2022-10-23T14:18:02;5.07;;;1.33;;
19903;SDS011;10114;50.970;4.962;2022-10-23T14:20:28;5.75;;;1.77;;
19903;SDS011;10114;50.970;4.962;2022-10-23T14:22:54;4.65;;;1.83;;
19903;SDS011;10114;50.970;4.962;2022-10-23T14:25:21;6.80;;;1.60;;
19903;SDS011;10114;50.970;4.962;2022-10-23T14:27:47;6.45;;;2.10;;
19903;SDS011;10114;50.970;4.962;2022-10-23T14:30:13;7.72;;;1.80;;
19903;SDS011;10114;50.970;4.962;2022-10-23T14:32:40;7.10;;;1.77;;
19903;SDS011;10114;50.970;4.962;2022-10-23T14:35:06;6.20;;;2.20;;
19903;SDS011;10114;50.970;4.962;2022-10-23T14:37:32;9.60;;;1.80;;
19903;SDS011;10114;50.970;4.962;2022-10-23T14:39:59;4.47;;;1.90;;
19903;SDS011;10114;50.970;4.962;2022-10-23T14:42:25;8.35;;;1.80;;
19903;SDS011;10114;50.970;4.962;2022-10-23T14:44:51;5.03;;;1.85;;
19903;SDS011;10114;50.970;4.962;2022-10-23T14:47:17;5.47;;;2.08;;
19903;SDS011;10114;50.970;4.962;2022-10-23T14:49:45;7.38;;;2.13;;
19903;SDS011;10114;50.970;4.962;2022-10-23T14:52:11;8.00;;;2.33;;
19903;SDS011;10114;50.970;4.962;2022-10-23T14:54:37;8.23;;;1.83;;
19903;SDS011;10114;50.970;4.962;2022-10-23T14:57:03;6.32;;;2.22;;
19903;SDS011;10114;50.970;4.962;2022-10-23T14:59:29;7.70;;;1.88;;
19903;SDS011;10114;50.970;4.962;2022-10-23T15:01:55;9.10;;;2.53;;
19903;SDS011;10114;50.970;4.962;2022-10-23T15:04:21;8.88;;;2.30;;
19903;SDS011;10114;50.970;4.962;2022-10-23T15:06:47;8.52;;;2.63;;
19903;SDS011;10114;50.970;4.962;2022-10-23T15:09:14;7.28;;;1.92;;
19903;SDS011;10114;50.970;4.962;2022-10-23T15:11:40;10.88;;;2.10;;
19903;SDS011;10114;50.970;4.962;2022-10-23T15:14:06;7.95;;;2.00;;
19903;SDS011;10114;50.970;4.962;2022-10-23T15:16:32;7.18;;;2.35;;
19903;SDS011;10114;50.970;4.962;2022-10-23T15:19:05;6.63;;;2.03;;
19903;SDS011;10114;50.970;4.962;2022-10-23T15:21:31;5.97;;;2.42;;
19903;SDS011;10114;50.970;4.962;2022-10-23T15:23:57;9.38;;;1.83;;
19903;SDS011;10114;50.970;4.962;2022-10-23T15:26:25;8.85;;;2.50;;
19903;SDS011;10114;50.970;4.962;2022-10-23T15:28:52;8.00;;;2.35;;
19903;SDS011;10114;50.970;4.962;2022-10-23T15:33:50;7.72;;;2.67;;
19903;SDS011;10114;50.970;4.962;2022-10-23T15:36:16;6.65;;;2.28;;
19903;SDS011;10114;50.970;4.962;2022-10-23T15:38:42;8.10;;;2.97;;
19903;SDS011;10114;50.970;4.962;2022-10-23T15:41:12;7.50;;;2.53;;
19903;SDS011;10114;50.970;4.962;2022-10-23T15:43:38;9.45;;;2.80;;
19903;SDS011;10114;50.970;4.962;2022-10-23T15:46:04;6.65;;;2.35;;
19903;SDS011;10114;50.970;4.962;2022-10-23T15:48:30;6.55;;;2.35;;
19903;SDS011;10114;50.970;4.962;2022-10-23T15:50:56;8.85;;;2.83;;
19903;SDS011;10114;50.970;4.962;2022-10-23T15:53:23;6.15;;;2.25;;
19903;SDS011;10114;50.970;4.962;2022-10-23T15:55:49;7.75;;;2.97;;
19903;SDS011;10114;50.970;4.962;2022-10-23T15:58:15;8.55;;;2.53;;
19903;SDS011;10114;50.970;4.962;2022-10-23T16:00:41;5.97;;;2.25;;
19903;SDS011;10114;50.970;4.962;2022-10-23T16:03:07;7.45;;;2.10;;
19903;SDS011;10114;50.970;4.962;2022-10-23T16:05:34;9.57;;;2.65;;
19903;SDS011;10114;50.970;4.962;2022-10-23T16:08:00;6.30;;;2.60;;
19903;SDS011;10114;50.970;4.962;2022-10-23T16:10:27;10.40;;;3.13;;
19903;SDS011;10114;50.970;4.962;2022-10-23T16:12:53;9.15;;;2.03;;
19903;SDS011;10114;50.970;4.962;2022-10-23T16:15:19;6.85;;;2.58;;
19903;SDS011;10114;50.970;4.962;2022-10-23T16:17:45;6.80;;;2.40;;
19903;SDS011;10114;50.970;4.962;2022-10-23T16:20:11;9.68;;;2.25;;
19903;SDS011;10114;50.970;4.962;2022-10-23T16:22:37;7.15;;;2.10;;
19903;SDS011;10114;50.970;4.962;2022-10-23T16:25:03;7.40;;;2.30;;
19903;SDS011;10114;50.970;4.962;2022-10-23T16:27:29;8.35;;;2.08;;
19903;SDS011;10114;50.970;4.962;2022-10-23T16:29:55;7.68;;;2.00;;
19903;SDS011;10114;50.970;4.962;2022-10-23T16:32:21;7.00;;;2.50;;
19903;SDS011;10114;50.970;4.962;2022-10-23T16:34:47;8.98;;;2.03;;
19903;SDS011;10114;50.970;4.962;2022-10-23T16:37:13;6.80;;;2.53;;
19903;SDS011;10114;50.970;4.962;2022-10-23T16:39:39;9.27;;;2.22;;
19903;SDS011;10114;50.970;4.962;2022-10-23T16:42:05;6.35;;;2.28;;
19903;SDS011;10114;50.970;4.962;2022-10-23T16:44:31;9.60;;;2.45;;
19903;SDS011;10114;50.970;4.962;2022-10-23T16:46:57;8.25;;;3.38;;
19903;SDS011;10114;50.970;4.962;2022-10-23T16:49:23;12.25;;;4.20;;
19903;SDS011;10114;50.970;4.962;2022-10-23T16:51:49;6.63;;;2.50;;
19903;SDS011;10114;50.970;4.962;2022-10-23T16:54:15;8.65;;;2.15;;
19903;SDS011;10114;50.970;4.962;2022-10-23T16:56:41;7.43;;;2.20;;